Time;durP1;ratioP1;P1;durP2;ratioP2;P2;SDS_P1;SDS_P2;PMS_P1;PMS_P2;Temp;Humidity;BMP_temperature;BMP_pressure;BME280_temperature;BME280_humidity;BME280_pressure;Samples;Min_cycle;Max_cycle;Signal;HPM_P1;HPM_P2
2023/01/26 00:02:02;;;;;;;46.07;17.50;;;0.80;99.90;;;;;;6240247;23;20823;-82
2023/01/26 00:04:27;;;;;;;38.60;17.57;;;0.80;99.90;;;;;;6240492;23;20196;-81
2023/01/26 00:06:53;;;;;;;36.77;16.00;;;0.90;99.90;;;;;;6238375;23;20181;-83
2023/01/26 00:09:18;;;;;;;39.77;16.53;;;0.90;99.90;;;;;;6239212;23;20231;-82
2023/01/26 00:11:44;;;;;;;34.23;15.63;;;0.90;99.90;;;;;;6238899;23;20233;-84
2023/01/26 00:14:09;;;;;;;31.93;15.93;;;0.80;99.90;;;;;;6240098;23;20513;-82
2023/01/26 00:16:35;;;;;;;35.60;15.60;;;0.80;99.90;;;;;;6238987;23;20180;-82
2023/01/26 00:19:01;;;;;;;37.30;16.60;;;0.80;99.90;;;;;;6237129;23;20176;-80
2023/01/26 00:21:27;;;;;;;39.15;15.63;;;0.80;99.90;;;;;;6237771;23;20156;-84
2023/01/26 00:23:52;;;;;;;37.43;15.73;;;0.80;99.90;;;;;;6237864;23;20148;-84
2023/01/26 00:26:21;;;;;;;34.03;15.47;;;0.80;99.90;;;;;;6236988;23;20157;-85
2023/01/26 00:28:47;;;;;;;38.53;15.77;;;0.80;99.90;;;;;;6239070;23;20795;-82
2023/01/26 00:31:16;;;;;;;37.33;17.60;;;0.70;99.90;;;;;;6236481;23;20642;-82
2023/01/26 00:33:42;;;;;;;40.47;16.77;;;0.70;99.90;;;;;;6239352;22;20516;-85
2023/01/26 00:36:08;;;;;;;38.13;16.60;;;0.60;99.90;;;;;;6237174;23;20177;-81
2023/01/26 00:38:34;;;;;;;41.97;17.85;;;0.70;99.90;;;;;;6234065;23;20157;-82
2023/01/26 00:40:59;;;;;;;52.33;18.30;;;0.60;99.90;;;;;;6235594;23;20145;-83
2023/01/26 00:43:25;;;;;;;34.57;16.93;;;0.60;99.90;;;;;;6239204;23;21251;-83
2023/01/26 00:45:51;;;;;;;36.87;15.60;;;0.60;99.90;;;;;;6241109;23;20168;-84
2023/01/26 00:48:16;;;;;;;34.10;15.30;;;0.70;99.90;;;;;;6240704;22;20175;-83
2023/01/26 00:50:42;;;;;;;38.63;14.20;;;0.70;99.90;;;;;;6239864;23;20387;-82
2023/01/26 00:53:08;;;;;;;39.13;16.30;;;0.70;99.90;;;;;;6237588;23;20156;-82
2023/01/26 00:55:34;;;;;;;35.08;16.15;;;0.70;99.90;;;;;;6239395;23;20168;-83
2023/01/26 00:58:05;;;;;;;37.43;15.53;;;0.60;99.90;;;;;;6240723;23;20451;-83
2023/01/26 01:00:33;;;;;;;35.92;15.70;;;0.60;99.90;;;;;;6239720;23;20144;-83
2023/01/26 01:02:58;;;;;;;31.73;16.63;;;0.50;99.90;;;;;;6238737;23;20159;-85
2023/01/26 01:05:27;;;;;;;34.47;15.77;;;0.40;99.90;;;;;;6238099;23;20172;-85
2023/01/26 01:07:53;;;;;;;38.53;16.13;;;0.40;99.90;;;;;;6241017;22;20174;-83
2023/01/26 01:10:18;;;;;;;31.33;14.33;;;0.30;99.90;;;;;;6239254;23;20717;-83
2023/01/26 01:12:44;;;;;;;34.03;15.17;;;0.30;99.90;;;;;;6240161;23;20145;-84
2023/01/26 01:15:10;;;;;;;29.73;14.30;;;0.30;99.90;;;;;;6238782;23;20574;-86
2023/01/26 01:17:36;;;;;;;53.88;16.63;;;0.30;99.90;;;;;;6243036;23;20257;-81
2023/01/26 01:20:06;;;;;;;33.40;16.23;;;0.30;99.90;;;;;;6236819;23;20157;-84
2023/01/26 01:22:33;;;;;;;46.00;17.48;;;0.40;99.90;;;;;;6234621;23;20198;-86
2023/01/26 01:24:58;;;;;;;41.00;17.48;;;0.40;99.90;;;;;;6246586;22;20172;-82
2023/01/26 01:27:24;;;;;;;36.43;16.63;;;0.40;99.90;;;;;;6237354;23;20155;-84
2023/01/26 01:29:50;;;;;;;41.37;15.73;;;0.40;99.90;;;;;;6239371;23;20943;-83
2023/01/26 01:32:16;;;;;;;32.00;14.35;;;0.40;99.90;;;;;;6241631;23;20184;-83
2023/01/26 01:34:42;;;;;;;35.28;15.55;;;0.40;99.90;;;;;;6237744;23;20193;-83
2023/01/26 01:37:08;;;;;;;39.57;16.20;;;0.50;99.90;;;;;;6234804;23;20180;-82
2023/01/26 01:39:33;;;;;;;33.53;15.60;;;0.40;99.90;;;;;;6236266;23;20511;-84
2023/01/26 01:41:59;;;;;;;28.30;13.40;;;0.40;99.90;;;;;;6235930;23;20338;-85
2023/01/26 01:44:25;;;;;;;41.77;17.07;;;0.40;99.90;;;;;;6235874;23;20255;-83
2023/01/26 01:46:59;;;;;;;36.70;15.63;;;0.40;99.90;;;;;;6239396;23;20133;-81
2023/01/26 01:49:29;;;;;;;34.95;16.52;;;0.40;99.90;;;;;;6236738;23;20188;-83
2023/01/26 01:52:13;;;;;;;41.85;16.65;;;0.40;99.90;;;;;;6238187;22;20171;-84
2023/01/26 01:54:49;;;;;;;40.17;15.20;;;0.30;99.90;;;;;;6238548;23;20176;-84
2023/01/26 01:57:27;;;;;;;38.55;15.40;;;0.40;99.90;;;;;;6236209;23;20172;-82
2023/01/26 02:00:05;;;;;;;38.97;17.67;;;0.50;99.90;;;;;;6237491;22;20187;-82
2023/01/26 02:02:31;;;;;;;37.97;16.23;;;0.60;99.90;;;;;;6235574;22;20149;-82
2023/01/26 02:05:02;;;;;;;32.23;14.50;;;0.70;99.90;;;;;;6234030;23;20176;-83
2023/01/26 02:07:29;;;;;;;40.53;16.73;;;0.70;99.90;;;;;;6231743;23;20364;-85
2023/01/26 02:12:40;;;;;;;41.83;16.52;;;0.90;99.90;;;;;;6236131;23;20682;-85
2023/01/26 02:15:07;;;;;;;38.38;16.77;;;0.90;99.90;;;;;;6236170;22;20582;-82
2023/01/26 02:17:32;;;;;;;45.58;17.98;;;0.90;99.90;;;;;;6234623;22;21016;-84
2023/01/26 02:20:10;;;;;;;33.60;16.83;;;0.90;99.90;;;;;;6236893;23;20172;-82
2023/01/26 02:22:41;;;;;;;30.75;14.70;;;0.70;99.90;;;;;;6233412;23;20156;-84
2023/01/26 02:25:24;;;;;;;34.53;14.95;;;0.60;99.90;;;;;;6234734;22;20168;-82
2023/01/26 02:27:50;;;;;;;39.47;17.55;;;0.50;99.90;;;;;;6233021;23;20661;-82
2023/01/26 02:30:16;;;;;;;33.05;15.60;;;0.50;99.90;;;;;;6234799;23;20156;-84
2023/01/26 02:32:42;;;;;;;36.22;15.80;;;0.60;99.90;;;;;;6236183;22;20184;-85
2023/01/26 02:35:08;;;;;;;23.73;12.00;;;0.50;99.90;;;;;;6232036;23;20183;-83
2023/01/26 02:37:33;;;;;;;30.83;14.43;;;0.50;99.90;;;;;;6233105;23;20180;-83
2023/01/26 02:40:06;;;;;;;40.43;16.00;;;0.40;99.90;;;;;;6234455;23;20380;-85
2023/01/26 02:42:37;;;;;;;34.25;16.58;;;0.40;99.90;;;;;;6233589;23;20153;-85
2023/01/26 02:45:04;;;;;;;27.85;14.70;;;0.30;99.90;;;;;;6232553;23;20208;-84
2023/01/26 02:47:30;;;;;;;32.20;15.80;;;0.20;99.90;;;;;;6230270;23;20458;-85
2023/01/26 02:49:57;;;;;;;32.73;14.33;;;0.20;99.90;;;;;;6251599;23;20152;-82
2023/01/26 02:52:25;;;;;;;33.35;15.05;;;0.20;99.90;;;;;;6243730;22;20140;-84
2023/01/26 02:57:35;;;;;;;31.80;15.68;;;0.20;99.90;;;;;;6238140;23;20194;-85
2023/01/26 03:00:04;;;;;;;35.57;14.57;;;0.20;99.90;;;;;;6239712;23;20646;-83
2023/01/26 03:02:29;;;;;;;29.67;14.05;;;0.20;99.90;;;;;;6241214;23;20390;-82
2023/01/26 03:04:55;;;;;;;36.13;14.00;;;0.20;99.90;;;;;;6240800;23;20168;-84
2023/01/26 03:07:21;;;;;;;40.10;14.87;;;0.30;99.90;;;;;;6241264;23;20188;-84
2023/01/26 03:09:46;;;;;;;31.30;14.37;;;0.30;99.90;;;;;;6241308;23;20525;-84
2023/01/26 03:12:12;;;;;;;36.80;15.63;;;0.30;99.90;;;;;;6242388;23;20133;-82
2023/01/26 03:14:37;;;;;;;42.40;17.03;;;0.20;99.90;;;;;;6240608;23;20169;-84
2023/01/26 03:17:03;;;;;;;30.93;14.70;;;0.20;99.90;;;;;;6238382;23;20570;-83
2023/01/26 03:27:44;;;;;;;48.88;18.58;;;0.10;99.90;;;;;;6242697;23;20147;-85
2023/01/26 03:30:10;;;;;;;36.85;16.52;;;0.10;99.90;;;;;;6240971;22;20155;-85
2023/01/26 03:32:36;;;;;;;47.58;15.90;;;0.10;99.90;;;;;;6241386;22;20185;-84
2023/01/26 03:35:01;;;;;;;37.43;16.57;;;0.10;99.90;;;;;;6238513;23;20266;-84
2023/01/26 03:37:27;;;;;;;42.47;16.13;;;0.10;99.90;;;;;;6237285;23;20184;-86
2023/01/26 03:56:21;;;;;;;28.63;13.50;;;0.10;99.90;;;;;;6236848;23;20521;-82
2023/01/26 03:58:51;;;;;;;32.33;16.33;;;0.10;99.90;;;;;;6235458;22;20145;-83
2023/01/26 04:01:19;;;;;;;38.90;15.75;;;0.10;99.90;;;;;;6239182;23;20441;-85
2023/01/26 04:09:20;;;;;;;36.05;16.45;;;0.10;99.90;;;;;;6240283;23;20159;-85
2023/01/26 04:11:46;;;;;;;34.38;15.25;;;0.00;99.90;;;;;;6241884;22;20862;-84
2023/01/26 04:22:26;;;;;;;34.22;14.70;;;-0.10;99.90;;;;;;6243013;23;20273;-85
2023/01/26 04:24:52;;;;;;;40.30;14.80;;;-0.20;99.90;;;;;;6242435;23;20169;-86
2023/01/26 04:27:17;;;;;;;32.00;14.33;;;-0.20;99.90;;;;;;6252595;23;20145;-86
2023/01/26 04:29:43;;;;;;;41.50;15.80;;;-0.30;99.90;;;;;;6242460;23;20153;-86
2023/01/26 04:32:08;;;;;;;37.13;15.30;;;-0.30;99.90;;;;;;6242836;23;20665;-86
2023/01/26 04:34:34;;;;;;;36.67;14.40;;;-0.30;99.90;;;;;;6241713;23;20173;-83
2023/01/26 04:36:59;;;;;;;39.60;15.40;;;-0.30;99.90;;;;;;6242404;23;20180;-83
2023/01/26 04:39:25;;;;;;;36.43;14.93;;;-0.30;99.90;;;;;;6236803;23;20231;-85
2023/01/26 04:41:50;;;;;;;37.80;15.77;;;-0.20;99.90;;;;;;6240119;23;20152;-84
2023/01/26 04:44:16;;;;;;;32.30;14.27;;;-0.20;99.90;;;;;;6235859;23;20172;-83
2023/01/26 04:46:42;;;;;;;31.37;15.67;;;-0.10;99.90;;;;;;6238839;23;20965;-85
2023/01/26 04:49:07;;;;;;;28.77;13.77;;;-0.10;99.90;;;;;;6239533;23;20164;-84
2023/01/26 04:51:33;;;;;;;35.27;14.73;;;0.00;99.90;;;;;;6239335;23;20153;-84
2023/01/26 04:53:59;;;;;;;28.70;12.95;;;0.00;99.90;;;;;;6239908;23;20152;-84
2023/01/26 04:56:27;;;;;;;36.60;15.57;;;0.10;99.90;;;;;;6239806;23;20229;-84
2023/01/26 04:58:54;;;;;;;34.35;13.95;;;0.10;99.90;;;;;;6239423;23;20156;-86
2023/01/26 05:01:20;;;;;;;39.50;15.60;;;0.00;99.90;;;;;;6236282;23;20157;-85
2023/01/26 05:03:46;;;;;;;36.77;16.97;;;0.00;99.90;;;;;;6235729;23;20662;-83
2023/01/26 05:06:12;;;;;;;37.10;16.98;;;0.10;99.90;;;;;;6236517;23;20160;-83
2023/01/26 05:08:38;;;;;;;38.15;14.95;;;0.10;99.90;;;;;;6239991;22;20175;-83
2023/01/26 05:11:04;;;;;;;43.00;16.53;;;0.30;99.90;;;;;;6239408;23;20160;-83
2023/01/26 05:13:29;;;;;;;31.50;15.38;;;0.30;99.90;;;;;;6240415;23;20433;-83
2023/01/26 05:15:55;;;;;;;30.00;12.60;;;0.20;99.90;;;;;;6240796;23;20638;-83
2023/01/26 05:18:20;;;;;;;33.90;14.70;;;0.30;99.90;;;;;;6242246;23;20219;-86
2023/01/26 05:20:47;;;;;;;29.80;13.77;;;0.30;99.90;;;;;;6233371;23;20161;-86
2023/01/26 05:23:12;;;;;;;39.40;15.60;;;0.20;99.90;;;;;;6241552;22;20595;-85
2023/01/26 05:25:38;;;;;;;34.43;15.20;;;0.10;99.90;;;;;;6239769;23;20169;-86
2023/01/26 05:28:04;;;;;;;36.63;16.27;;;0.00;99.90;;;;;;6238029;23;20184;-85
2023/01/26 05:30:30;;;;;;;32.55;14.48;;;0.00;99.90;;;;;;6237648;23;20160;-83
2023/01/26 05:33:06;;;;;;;39.93;15.83;;;0.00;99.90;;;;;;6237968;22;20148;-84
2023/01/26 05:35:33;;;;;;;35.25;13.27;;;0.00;99.90;;;;;;6232260;23;20414;-84
2023/01/26 05:37:58;;;;;;;37.47;17.35;;;0.10;99.90;;;;;;6236819;23;20176;-83
2023/01/26 05:40:25;;;;;;;32.13;14.60;;;0.10;99.90;;;;;;6242525;23;20653;-84
2023/01/26 05:42:51;;;;;;;32.92;13.63;;;0.10;99.90;;;;;;6245880;22;20625;-85
2023/01/26 05:45:17;;;;;;;39.33;15.43;;;0.10;99.90;;;;;;6241392;23;20176;-86
2023/01/26 05:47:43;;;;;;;32.50;13.60;;;0.10;99.90;;;;;;6240000;23;20627;-83
2023/01/26 05:50:10;;;;;;;36.20;15.30;;;0.10;99.90;;;;;;6238025;23;20398;-85
2023/01/26 05:52:36;;;;;;;39.30;16.38;;;0.10;99.90;;;;;;6235284;23;20188;-86
2023/01/26 05:55:02;;;;;;;32.33;13.60;;;0.30;99.90;;;;;;6233673;23;20705;-83
2023/01/26 05:57:27;;;;;;;36.67;15.88;;;0.40;99.90;;;;;;6237129;23;20176;-85
2023/01/26 05:59:54;;;;;;;37.53;15.93;;;0.30;99.90;;;;;;6235623;23;20140;-86
2023/01/26 06:02:20;;;;;;;29.70;12.80;;;0.30;99.90;;;;;;6235715;23;20360;-83
2023/01/26 06:04:45;;;;;;;34.30;14.07;;;0.40;99.90;;;;;;6235529;23;20167;-84
2023/01/26 06:07:14;;;;;;;29.40;15.00;;;0.50;99.90;;;;;;6241547;23;20159;-83
2023/01/26 06:09:40;;;;;;;30.77;14.23;;;0.60;99.90;;;;;;6249682;23;20156;-85
2023/01/26 06:12:12;;;;;;;33.15;13.10;;;0.70;99.90;;;;;;6240911;23;20159;-85
2023/01/26 06:14:38;;;;;;;32.05;14.32;;;0.60;99.90;;;;;;6241811;22;20809;-85
2023/01/26 06:17:03;;;;;;;32.40;14.53;;;0.60;99.90;;;;;;6239530;23;20184;-85
2023/01/26 06:19:29;;;;;;;32.60;15.60;;;0.60;99.90;;;;;;6239205;23;20156;-83
2023/01/26 06:21:54;;;;;;;24.33;10.83;;;0.60;99.90;;;;;;6228849;23;20205;-85
2023/01/26 06:24:20;;;;;;;31.00;12.90;;;0.50;99.90;;;;;;6227819;23;21135;-85
2023/01/26 06:26:49;;;;;;;29.73;12.73;;;0.40;99.90;;;;;;6234155;23;20152;-85
2023/01/26 06:29:14;;;;;;;24.08;11.02;;;0.40;99.90;;;;;;6236832;22;20173;-87
2023/01/26 06:31:40;;;;;;;20.90;10.00;;;0.40;99.90;;;;;;6232852;23;20202;-83
2023/01/26 06:34:06;;;;;;;28.27;13.40;;;0.40;99.90;;;;;;6235259;23;20164;-84
2023/01/26 06:36:32;;;;;;;27.67;12.77;;;0.50;99.90;;;;;;6232924;23;20177;-83
2023/01/26 06:38:58;;;;;;;32.53;14.02;;;0.60;99.90;;;;;;6236278;23;20354;-82
2023/01/26 06:41:23;;;;;;;30.70;13.00;;;0.80;99.90;;;;;;6236878;23;20141;-83
2023/01/26 06:43:49;;;;;;;23.10;13.17;;;1.00;99.90;;;;;;6236887;23;20845;-85
2023/01/26 06:46:15;;;;;;;25.63;10.20;;;1.00;99.90;;;;;;6235577;23;20521;-85
2023/01/26 06:48:41;;;;;;;21.17;9.88;;;1.00;99.90;;;;;;6234246;23;20195;-83
2023/01/26 06:51:19;;;;;;;24.70;9.97;;;1.00;99.90;;;;;;6231685;23;20234;-85
2023/01/26 06:53:56;;;;;;;24.70;10.90;;;0.80;99.90;;;;;;6231155;23;20149;-85
2023/01/26 06:56:22;;;;;;;24.38;10.63;;;0.70;99.90;;;;;;6236097;22;20176;-84
2023/01/26 06:58:48;;;;;;;23.17;11.30;;;0.60;99.90;;;;;;6232592;22;20152;-83
2023/01/26 07:01:24;;;;;;;23.47;12.03;;;0.70;99.90;;;;;;6233491;23;20228;-82
2023/01/26 07:03:51;;;;;;;27.75;12.52;;;0.60;99.90;;;;;;6234508;23;20612;-83
2023/01/26 07:06:17;;;;;;;29.20;13.30;;;0.60;99.90;;;;;;6234351;23;20207;-82
2023/01/26 07:08:42;;;;;;;28.10;13.23;;;0.60;99.90;;;;;;6240016;23;20164;-83
2023/01/26 07:11:09;;;;;;;28.03;11.33;;;0.60;99.90;;;;;;6238359;23;20160;-83
2023/01/26 07:13:35;;;;;;;35.60;14.45;;;0.50;99.90;;;;;;6238925;23;20262;-83
2023/01/26 07:16:06;;;;;;;27.80;11.67;;;0.50;99.90;;;;;;6230418;23;20219;-84
2023/01/26 07:18:34;;;;;;;31.05;12.35;;;0.50;99.90;;;;;;6234128;22;20629;-84
2023/01/26 07:21:01;;;;;;;34.90;11.57;;;0.40;99.90;;;;;;6231244;23;20152;-83
2023/01/26 07:23:26;;;;;;;26.98;12.23;;;0.50;99.90;;;;;;6231631;22;20218;-83
2023/01/26 07:25:52;;;;;;;32.63;13.23;;;0.50;99.90;;;;;;6233776;23;20989;-86
2023/01/26 07:28:17;;;;;;;45.10;23.33;;;0.60;99.90;;;;;;6239503;23;20159;-82
2023/01/26 07:30:43;;;;;;;40.90;19.27;;;0.70;99.90;;;;;;6233077;23;20155;-82
2023/01/26 07:33:08;;;;;;;28.10;12.87;;;0.80;99.90;;;;;;6233128;23;20662;-82
2023/01/26 07:35:34;;;;;;;28.83;13.10;;;0.90;99.90;;;;;;6234857;23;20267;-83
2023/01/26 07:38:02;;;;;;;40.60;16.30;;;1.00;99.90;;;;;;6234185;23;20191;-83
2023/01/26 07:40:27;;;;;;;27.80;12.43;;;1.00;99.90;;;;;;6236462;22;20224;-82
2023/01/26 07:42:55;;;;;;;32.90;13.67;;;0.80;99.90;;;;;;6240279;23;20183;-84
2023/01/26 07:45:20;;;;;;;28.77;14.20;;;0.70;99.90;;;;;;6240289;23;20171;-82
2023/01/26 07:47:46;;;;;;;32.93;13.57;;;0.50;99.90;;;;;;6238320;23;20346;-83
2023/01/26 07:50:13;;;;;;;40.15;16.00;;;0.40;99.90;;;;;;6242589;22;20202;-84
2023/01/26 07:52:38;;;;;;;40.47;16.90;;;0.40;99.90;;;;;;6247411;22;20157;-82
2023/01/26 07:55:04;;;;;;;32.77;15.67;;;0.40;99.90;;;;;;6248216;22;20172;-83
2023/01/26 07:57:30;;;;;;;23.80;12.20;;;0.50;99.90;;;;;;6244594;23;20442;-83
2023/01/26 07:59:56;;;;;;;38.53;15.38;;;0.60;99.90;;;;;;6240580;22;20422;-83
2023/01/26 08:02:21;;;;;;;24.60;12.03;;;0.60;99.90;;;;;;6240243;23;20152;-84
2023/01/26 08:04:48;;;;;;;29.17;12.23;;;0.60;99.90;;;;;;6237536;23;20177;-85
2023/01/26 08:07:13;;;;;;;33.67;14.63;;;0.60;99.90;;;;;;6237957;23;20152;-84
2023/01/26 08:09:39;;;;;;;31.53;14.00;;;0.40;99.90;;;;;;6240820;23;20160;-83
2023/01/26 08:12:06;;;;;;;32.90;14.37;;;0.40;99.90;;;;;;6241546;23;20561;-82
2023/01/26 08:14:31;;;;;;;36.92;14.57;;;0.30;99.90;;;;;;6241087;23;20183;-84
2023/01/26 08:16:57;;;;;;;41.43;17.60;;;0.30;99.90;;;;;;6243725;23;20184;-84
2023/01/26 08:19:22;;;;;;;42.93;18.57;;;0.40;99.90;;;;;;6241682;23;20395;-83
2023/01/26 08:21:48;;;;;;;31.33;15.57;;;0.40;99.90;;;;;;6234930;23;20207;-83
2023/01/26 08:24:14;;;;;;;35.70;15.00;;;0.50;99.90;;;;;;6239915;23;20233;-83
2023/01/26 08:26:39;;;;;;;35.67;15.07;;;0.50;99.90;;;;;;6240129;22;20726;-85
2023/01/26 08:29:05;;;;;;;28.07;13.27;;;0.50;99.90;;;;;;6243726;23;20152;-83
2023/01/26 08:31:32;;;;;;;36.27;14.47;;;0.50;99.90;;;;;;6241341;23;20164;-84
2023/01/26 08:33:58;;;;;;;26.75;14.25;;;0.50;99.90;;;;;;6246791;23;20248;-83
2023/01/26 08:36:23;;;;;;;37.80;14.35;;;0.50;99.90;;;;;;6254451;22;20152;-83
2023/01/26 08:38:50;;;;;;;37.63;13.33;;;0.50;99.90;;;;;;6257928;23;20156;-84
2023/01/26 08:41:16;;;;;;;25.00;11.55;;;0.50;99.90;;;;;;6253005;23;20152;-85
2023/01/26 08:43:41;;;;;;;60.60;25.50;;;0.40;99.90;;;;;;6253320;23;20633;-82
2023/01/26 08:46:07;;;;;;;53.77;23.30;;;0.40;99.90;;;;;;6251492;23;20182;-82
2023/01/26 08:48:33;;;;;;;37.17;21.00;;;0.50;99.90;;;;;;6250860;23;20384;-84
2023/01/26 08:51:00;;;;;;;21.60;10.20;;;0.50;99.90;;;;;;6248690;23;20386;-82
2023/01/26 08:53:28;;;;;;;19.08;10.45;;;0.40;99.90;;;;;;6248747;22;20179;-83
2023/01/26 08:55:54;;;;;;;27.75;9.98;;;0.30;99.90;;;;;;6249653;23;20200;-82
2023/01/26 08:58:19;;;;;;;28.33;11.50;;;0.20;99.90;;;;;;6248369;23;20168;-83
2023/01/26 09:00:45;;;;;;;27.07;13.43;;;0.30;99.90;;;;;;6247697;23;20151;-81
2023/01/26 09:03:10;;;;;;;27.80;11.67;;;0.50;99.90;;;;;;6250729;23;20163;-82
2023/01/26 09:05:38;;;;;;;23.67;13.17;;;0.60;99.90;;;;;;6246887;23;20169;-83
2023/01/26 09:08:05;;;;;;;24.23;9.10;;;0.50;99.90;;;;;;6249156;22;20216;-82
2023/01/26 09:10:31;;;;;;;49.33;24.50;;;0.40;99.90;;;;;;6246836;23;20168;-84
2023/01/26 09:12:57;;;;;;;25.17;11.60;;;0.30;99.90;;;;;;6247687;22;20145;-83
2023/01/26 09:15:23;;;;;;;27.55;11.43;;;0.30;99.90;;;;;;6245362;23;20445;-83
2023/01/26 09:17:49;;;;;;;23.90;12.90;;;0.20;99.90;;;;;;6245152;23;20278;-84
2023/01/26 09:20:15;;;;;;;23.58;11.82;;;0.40;99.90;;;;;;6245253;23;20153;-83
2023/01/26 09:22:41;;;;;;;28.35;15.07;;;0.40;99.90;;;;;;6246974;22;20133;-84
2023/01/26 09:25:07;;;;;;;30.67;13.68;;;0.40;99.90;;;;;;6248616;22;20169;-84
2023/01/26 09:27:33;;;;;;;25.30;11.88;;;0.60;99.90;;;;;;6247444;22;20212;-84
2023/01/26 09:29:58;;;;;;;31.40;15.00;;;0.40;99.90;;;;;;6244254;23;20605;-84
2023/01/26 09:32:24;;;;;;;25.07;10.70;;;0.40;99.90;;;;;;6246792;23;20227;-82
2023/01/26 09:34:49;;;;;;;32.50;12.43;;;0.50;99.90;;;;;;6243605;23;20179;-83
2023/01/26 09:37:15;;;;;;;30.83;16.80;;;0.50;99.90;;;;;;6249864;23;20220;-82
2023/01/26 09:39:41;;;;;;;20.43;10.33;;;0.50;99.90;;;;;;6259796;23;20152;-82
2023/01/26 09:42:30;;;;;;;24.97;10.80;;;0.50;99.90;;;;;;6250304;23;20156;-81
2023/01/26 09:45:11;;;;;;;20.30;9.32;;;0.50;99.90;;;;;;6254960;23;20165;-84
2023/01/26 09:47:51;;;;;;;28.02;9.68;;;0.30;99.90;;;;;;6254467;23;20212;-82
2023/01/26 09:50:23;;;;;;;17.67;7.00;;;0.10;99.90;;;;;;6243670;23;20164;-84
2023/01/26 09:52:58;;;;;;;25.42;7.72;;;0.10;99.90;;;;;;6250671;23;20437;-83
2023/01/26 09:55:24;;;;;;;20.27;7.93;;;0.10;99.90;;;;;;6246833;22;20171;-83
2023/01/26 09:57:54;;;;;;;16.52;8.43;;;0.10;99.90;;;;;;6248922;23;20173;-84
2023/01/26 10:00:25;;;;;;;17.92;8.52;;;0.10;99.90;;;;;;6247774;23;20174;-84
2023/01/26 10:03:22;;;;;;;20.00;7.85;;;0.10;99.90;;;;;;6246573;23;20201;-85
2023/01/26 10:05:55;;;;;;;18.58;9.75;;;0.10;99.90;;;;;;6255238;22;20164;-84
2023/01/26 10:08:25;;;;;;;17.50;7.72;;;0.10;99.90;;;;;;6250733;22;20133;-83
2023/01/26 10:11:17;;;;;;;22.75;8.90;;;0.20;99.90;;;;;;6251143;23;20145;-85
2023/01/26 10:13:50;;;;;;;21.05;8.80;;;0.20;99.90;;;;;;6248532;23;20144;-84
2023/01/26 10:16:16;;;;;;;19.02;9.15;;;0.20;99.90;;;;;;6251659;22;20179;-83
2023/01/26 10:18:44;;;;;;;21.87;8.50;;;0.20;99.90;;;;;;6248127;23;20235;-84
2023/01/26 10:21:11;;;;;;;22.10;9.23;;;0.20;99.90;;;;;;6239908;23;20141;-83
2023/01/26 10:23:46;;;;;;;24.05;10.27;;;0.20;99.90;;;;;;6245370;23;20156;-83
2023/01/26 10:26:17;;;;;;;23.50;8.50;;;0.30;99.90;;;;;;6245520;23;20562;-83
2023/01/26 10:28:44;;;;;;;23.05;7.88;;;0.20;99.90;;;;;;6247815;22;20159;-84
2023/01/26 10:31:17;;;;;;;19.73;8.95;;;0.20;99.90;;;;;;6246992;22;20247;-83
2023/01/26 10:34:07;;;;;;;22.02;9.60;;;0.20;99.90;;;;;;6246436;23;20148;-83
2023/01/26 10:36:33;;;;;;;21.77;10.45;;;0.20;99.90;;;;;;6243303;23;20168;-83
2023/01/26 10:39:10;;;;;;;30.07;10.17;;;0.20;99.90;;;;;;6234265;23;20160;-83
2023/01/26 10:41:36;;;;;;;19.95;8.48;;;0.20;99.90;;;;;;6241473;23;20147;-82
2023/01/26 10:44:02;;;;;;;24.70;9.70;;;0.20;99.90;;;;;;6245081;22;20145;-83
2023/01/26 10:46:30;;;;;;;25.60;9.30;;;0.10;99.90;;;;;;6242407;23;20376;-82
2023/01/26 10:48:59;;;;;;;21.23;8.95;;;0.20;99.90;;;;;;6244205;22;20394;-83
2023/01/26 10:51:31;;;;;;;23.45;8.55;;;0.20;99.90;;;;;;6240449;23;20156;-83
2023/01/26 10:54:18;;;;;;;23.35;9.57;;;0.20;99.90;;;;;;6243295;22;20163;-82
2023/01/26 10:57:09;;;;;;;21.85;7.88;;;0.30;99.90;;;;;;6242008;23;20979;-82
2023/01/26 10:59:44;;;;;;;17.67;9.10;;;0.20;99.90;;;;;;6243551;22;20217;-82
2023/01/26 11:02:10;;;;;;;19.42;8.70;;;0.10;99.90;;;;;;6245015;22;20140;-83
2023/01/26 11:04:35;;;;;;;25.57;9.50;;;0.20;99.90;;;;;;6237372;23;20181;-83
2023/01/26 11:07:27;;;;;;;21.13;9.23;;;0.30;99.90;;;;;;6241636;23;20159;-83
2023/01/26 11:09:54;;;;;;;21.25;9.60;;;0.30;99.90;;;;;;6238568;23;20153;-83
2023/01/26 11:12:23;;;;;;;24.05;11.30;;;0.30;99.90;;;;;;6237897;23;20159;-85
2023/01/26 11:15:01;;;;;;;22.85;9.10;;;0.40;99.90;;;;;;6240782;23;20180;-82
2023/01/26 11:17:35;;;;;;;22.97;9.80;;;0.40;99.90;;;;;;6195547;23;1031041;-84
2023/01/26 11:20:01;;;;;;;18.40;7.70;;;0.20;99.90;;;;;;6240527;23;20192;-80
2023/01/26 11:22:53;;;;;;;15.65;7.65;;;0.10;99.90;;;;;;6256389;22;20212;-83
2023/01/26 11:25:34;;;;;;;20.02;8.95;;;0.10;99.90;;;;;;6252638;22;20179;-83
2023/01/26 11:28:19;;;;;;;20.08;8.40;;;0.10;99.90;;;;;;6258914;22;20163;-83
2023/01/26 11:31:07;;;;;;;23.17;8.80;;;0.20;99.90;;;;;;6259264;23;20152;-83
2023/01/26 11:34:13;;;;;;;24.02;9.52;;;0.00;99.90;;;;;;6256826;22;20152;-81
2023/01/26 11:37:13;;;;;;;24.42;9.50;;;0.20;99.90;;;;;;6252704;22;20176;-83
2023/01/26 11:39:55;;;;;;;23.83;9.75;;;0.20;99.90;;;;;;6251788;22;20144;-81
2023/01/26 11:42:38;;;;;;;20.73;8.77;;;0.10;99.90;;;;;;6252115;23;20144;-84
2023/01/26 11:45:25;;;;;;;19.65;8.98;;;0.20;99.90;;;;;;6255112;22;20191;-82
2023/01/26 11:48:28;;;;;;;19.92;8.63;;;0.40;99.90;;;;;;6254433;22;20137;-81
2023/01/26 11:51:05;;;;;;;16.80;7.07;;;0.60;99.90;;;;;;6254301;23;20147;-83
2023/01/26 11:54:09;;;;;;;23.90;8.80;;;0.70;99.90;;;;;;6258773;22;20191;-82
2023/01/26 11:56:47;;;;;;;19.63;8.07;;;0.80;99.90;;;;;;6254613;23;20231;-83
2023/01/26 11:59:17;;;;;;;12.95;6.95;;;0.60;99.90;;;;;;6248248;23;20203;-80
2023/01/26 12:01:45;;;;;;;19.35;6.90;;;0.50;99.90;;;;;;6249010;22;20475;-80
2023/01/26 12:04:18;;;;;;;15.45;5.95;;;0.50;99.90;;;;;;6250257;23;20194;-82
2023/01/26 12:06:46;;;;;;;18.63;7.22;;;0.50;99.90;;;;;;6246895;23;20153;-82
2023/01/26 12:09:21;;;;;;;15.85;7.20;;;0.50;99.90;;;;;;6250430;23;20164;-84
2023/01/26 12:12:05;;;;;;;22.73;7.10;;;0.50;99.90;;;;;;6247572;23;20152;-84
2023/01/26 12:14:45;;;;;;;14.68;6.90;;;0.60;99.90;;;;;;6249920;23;20176;-82
2023/01/26 12:17:39;;;;;;;17.27;8.65;;;0.70;99.90;;;;;;6251521;22;20176;-83
2023/01/26 12:20:18;;;;;;;16.80;6.50;;;0.70;99.90;;;;;;6249684;23;20152;-81
2023/01/26 12:22:51;;;;;;;15.90;7.18;;;0.70;99.90;;;;;;6248739;23;20153;-82
2023/01/26 12:25:27;;;;;;;13.52;6.80;;;0.70;99.90;;;;;;6243241;22;20251;-84
2023/01/26 12:28:12;;;;;;;16.60;6.53;;;0.60;99.90;;;;;;6243047;23;20976;-81
2023/01/26 12:30:45;;;;;;;14.65;7.47;;;0.80;99.90;;;;;;6252846;23;20152;-82
2023/01/26 12:33:11;;;;;;;15.35;6.38;;;0.80;99.90;;;;;;6249449;23;20176;-82
2023/01/26 12:35:45;;;;;;;14.27;6.70;;;0.80;99.90;;;;;;6245589;23;20184;-83
2023/01/26 12:38:17;;;;;;;19.05;7.18;;;0.70;99.90;;;;;;6245202;23;20232;-84
2023/01/26 12:41:08;;;;;;;19.65;7.85;;;0.80;99.90;;;;;;6249660;22;20699;-83
2023/01/26 12:43:48;;;;;;;23.17;9.55;;;0.70;99.90;;;;;;6247643;23;20140;-82
2023/01/26 12:46:16;;;;;;;16.85;6.90;;;0.70;99.90;;;;;;6244224;23;20151;-83
2023/01/26 12:48:41;;;;;;;19.50;7.78;;;0.80;99.90;;;;;;6243695;23;20149;-84
2023/01/26 12:51:19;;;;;;;19.27;7.47;;;0.90;99.90;;;;;;6246983;23;20168;-83
2023/01/26 12:53:53;;;;;;;13.52;7.50;;;1.00;99.90;;;;;;6246919;22;20144;-82
2023/01/26 12:56:38;;;;;;;16.27;7.85;;;1.10;99.90;;;;;;6246996;22;20234;-82
2023/01/26 12:59:20;;;;;;;15.95;7.68;;;1.10;99.90;;;;;;6244047;23;20757;-83
2023/01/26 13:01:46;;;;;;;17.35;7.97;;;1.30;99.90;;;;;;6245076;23;20169;-82
2023/01/26 13:04:15;;;;;;;18.10;6.97;;;1.50;99.90;;;;;;6249271;23;20218;-81
2023/01/26 13:06:41;;;;;;;12.57;6.05;;;1.60;99.90;;;;;;6239039;23;20369;-84
2023/01/26 13:09:23;;;;;;;18.13;8.35;;;1.50;99.90;;;;;;6246289;22;20157;-82
2023/01/26 13:11:53;;;;;;;14.65;6.70;;;1.70;99.90;;;;;;6242828;23;20226;-82
2023/01/26 13:14:35;;;;;;;14.48;7.90;;;1.60;99.90;;;;;;6239811;23;20274;-83
2023/01/26 13:17:16;;;;;;;12.77;6.90;;;1.70;99.90;;;;;;6243303;23;20182;-81
2023/01/26 13:19:41;;;;;;;14.05;7.82;;;1.50;99.90;;;;;;6243923;23;20162;-84
2023/01/26 13:22:22;;;;;;;17.60;6.97;;;1.40;99.90;;;;;;6243843;23;20156;-82
2023/01/26 13:24:55;;;;;;;17.27;8.43;;;1.50;99.90;;;;;;6244931;23;20172;-83
2023/01/26 13:27:33;;;;;;;14.88;8.02;;;1.50;99.90;;;;;;6240864;23;20155;-83
2023/01/26 13:30:00;;;;;;;21.35;9.65;;;1.40;99.90;;;;;;6247863;22;20137;-83
2023/01/26 13:32:48;;;;;;;20.58;8.80;;;1.20;99.90;;;;;;6246018;23;20159;-83
2023/01/26 13:35:16;;;;;;;22.17;11.18;;;0.80;99.90;;;;;;6245428;23;20172;-82